createdAt,value
2023-04-07T00:00:31.292Z,7.68
2023-04-07T00:02:58.908Z,6.68
2023-04-07T00:05:26.202Z,6.45
2023-04-07T00:07:56.998Z,6.18
2023-04-07T00:10:25.367Z,5.97
2023-04-07T00:12:52.843Z,10.82
2023-04-07T00:15:20.443Z,7.97
2023-04-07T00:17:47.683Z,6.45
2023-04-07T00:20:14.987Z,7.93
2023-04-07T00:22:42.826Z,8.90
2023-04-07T00:25:10.751Z,6.60
2023-04-07T00:27:37.968Z,6.85
2023-04-07T00:30:06.198Z,6.47
2023-04-07T00:32:34.683Z,7.07
2023-04-07T00:35:02.844Z,8.02
2023-04-07T00:37:30.351Z,6.60
2023-04-07T00:39:59.183Z,7.18
2023-04-07T00:42:26.496Z,7.93
2023-04-07T00:44:53.813Z,4.60
2023-04-07T00:47:21.401Z,9.23
2023-04-07T00:49:48.634Z,10.98
2023-04-07T00:52:16.540Z,9.10
2023-04-07T00:54:46.480Z,8.93
2023-04-07T00:57:13.776Z,11.48
2023-04-07T00:59:40.984Z,10.65
2023-04-07T01:02:18.225Z,8.73
2023-04-07T01:05:12.966Z,10.10
2023-04-07T01:08:12.840Z,8.52
2023-04-07T01:10:41.612Z,7.90
2023-04-07T01:13:25.395Z,8.38
2023-04-07T01:16:00.988Z,11.45
2023-04-07T01:18:36.903Z,8.55
2023-04-07T01:21:11.185Z,9.10
2023-04-07T01:24:04.055Z,8.77
2023-04-07T01:26:35.945Z,14.85
2023-04-07T01:32:10.821Z,8.65
2023-04-07T01:34:44.938Z,9.23
2023-04-07T01:37:13.211Z,5.00
2023-04-07T01:39:40.483Z,11.68
2023-04-07T01:42:08.933Z,5.95
2023-04-07T01:44:37.228Z,4.93
2023-04-07T01:47:06.052Z,4.30
2023-04-07T01:49:35.488Z,5.50
2023-04-07T01:52:04.369Z,4.82
2023-04-07T01:54:32.037Z,9.57
2023-04-07T01:56:59.238Z,6.57
2023-04-07T01:59:27.490Z,4.80
2023-04-07T02:01:56.213Z,7.45
2023-04-07T02:04:38.850Z,5.00
2023-04-07T02:07:10.655Z,6.20
2023-04-07T02:09:43.608Z,6.75
2023-04-07T02:12:13.946Z,7.60
2023-04-07T02:17:16.610Z,5.18
2023-04-07T02:19:46.192Z,9.02
2023-04-07T02:22:14.406Z,7.78
2023-04-07T02:24:42.786Z,5.80
2023-04-07T02:27:10.283Z,8.07
2023-04-07T02:29:37.500Z,3.78
2023-04-07T02:32:06.544Z,6.22
2023-04-07T02:34:33.880Z,6.20
2023-04-07T02:37:01.254Z,6.55
2023-04-07T02:39:28.443Z,5.88
2023-04-07T02:41:56.298Z,5.78
2023-04-07T02:44:23.538Z,6.88
2023-04-07T02:46:50.840Z,6.68
2023-04-07T02:49:18.126Z,4.93
2023-04-07T02:51:46.939Z,7.80
2023-04-07T02:54:14.134Z,6.43
2023-04-07T02:56:41.330Z,5.20
2023-04-07T02:59:08.591Z,7.93
2023-04-07T03:01:41.307Z,7.85
2023-04-07T03:04:10.113Z,5.18
2023-04-07T03:06:37.478Z,4.00
2023-04-07T03:09:10.247Z,5.80
2023-04-07T03:11:37.513Z,4.88
2023-04-07T03:14:04.880Z,4.00
2023-04-07T03:16:33.402Z,5.03
2023-04-07T03:19:12.316Z,4.57
2023-04-07T03:21:43.617Z,8.25
2023-04-07T03:24:10.859Z,4.10
2023-04-07T03:26:38.326Z,5.63
2023-04-07T03:29:09.234Z,3.58
2023-04-07T03:31:37.700Z,6.53
2023-04-07T03:34:05.324Z,5.88
2023-04-07T03:36:32.975Z,7.40
2023-04-07T03:39:04.086Z,4.53
2023-04-07T03:41:31.534Z,11.65
2023-04-07T03:43:58.768Z,14.38
2023-04-07T03:46:27.214Z,9.82
2023-04-07T03:48:54.949Z,4.88
2023-04-07T03:51:22.792Z,6.00
2023-04-07T03:53:55.061Z,10.85
2023-04-07T03:56:39.504Z,9.13
2023-04-07T03:59:06.799Z,10.50
2023-04-07T04:01:38.610Z,6.50
2023-04-07T04:04:11.639Z,10.50
2023-04-07T04:06:39.340Z,9.40
2023-04-07T04:09:18.638Z,10.00
2023-04-07T04:11:48.560Z,4.68
2023-04-07T04:14:16.658Z,8.38
2023-04-07T04:16:49.819Z,5.60
2023-04-07T04:19:27.875Z,6.47
2023-04-07T04:21:57.373Z,5.45
2023-04-07T04:24:25.405Z,10.23
2023-04-07T04:29:22.709Z,4.45
2023-04-07T04:31:50.988Z,7.70
2023-04-07T04:34:19.331Z,11.13
2023-04-07T04:36:49.130Z,10.38
2023-04-07T04:39:18.864Z,6.75
2023-04-07T04:41:46.751Z,5.53
2023-04-07T04:44:14.166Z,7.88
2023-04-07T04:46:42.609Z,8.32
2023-04-07T04:49:10.244Z,7.10
2023-04-07T04:51:38.813Z,7.55
2023-04-07T04:54:13.777Z,7.55
2023-04-07T04:56:41.167Z,6.25
2023-04-07T04:59:09.096Z,5.00
2023-04-07T05:01:52.884Z,4.32
2023-04-07T05:04:20.534Z,6.25
2023-04-07T05:09:27.393Z,5.60
2023-04-07T05:11:58.285Z,4.63
2023-04-07T05:14:28.897Z,5.45
2023-04-07T05:17:04.467Z,7.13
2023-04-07T05:19:32.719Z,3.75
2023-04-07T05:22:10.595Z,3.70
2023-04-07T05:24:44.564Z,2.47
2023-04-07T05:27:11.856Z,5.25
2023-04-07T05:29:46.649Z,3.40
2023-04-07T05:32:23.520Z,6.95
2023-04-07T05:34:51.980Z,3.45
2023-04-07T05:37:20.411Z,6.10
2023-04-07T05:39:51.815Z,5.30
2023-04-07T05:42:19.070Z,6.13
2023-04-07T05:44:50.489Z,3.83
2023-04-07T05:47:18.239Z,8.75
2023-04-07T05:49:48.439Z,8.00
2023-04-07T05:52:15.698Z,3.97
2023-04-07T05:54:48.074Z,5.95
2023-04-07T05:57:16.455Z,8.38
2023-04-07T05:59:46.395Z,5.85
2023-04-07T06:02:13.919Z,5.18
2023-04-07T06:04:41.445Z,7.07
2023-04-07T06:07:11.721Z,4.10
2023-04-07T06:09:43.212Z,4.93
2023-04-07T06:12:12.250Z,5.78
2023-04-07T06:14:39.711Z,3.80
2023-04-07T06:17:07.097Z,7.50
2023-04-07T06:19:34.385Z,5.00
2023-04-07T06:22:03.005Z,4.35
2023-04-07T06:24:31.856Z,3.28
2023-04-07T06:27:01.315Z,6.45
2023-04-07T06:31:56.673Z,7.22
2023-04-07T06:34:23.916Z,6.38
2023-04-07T06:36:51.245Z,5.22
2023-04-07T06:39:18.559Z,2.83
2023-04-07T06:41:46.912Z,3.72
2023-04-07T06:44:14.492Z,5.78
2023-04-07T06:46:42.239Z,6.03
2023-04-07T06:49:09.661Z,7.95
2023-04-07T06:51:36.838Z,7.40
2023-04-07T06:54:05.416Z,4.50
2023-04-07T06:56:33.618Z,5.75
2023-04-07T06:59:00.913Z,7.07
2023-04-07T07:01:28.242Z,5.90
2023-04-07T07:03:55.766Z,7.38
2023-04-07T07:06:48.929Z,6.03
2023-04-07T07:09:16.253Z,7.28
2023-04-07T07:11:43.432Z,7.20
2023-04-07T07:14:10.722Z,9.38
2023-04-07T07:16:37.923Z,8.27
2023-04-07T07:19:05.247Z,7.45
2023-04-07T07:21:32.604Z,9.85
2023-04-07T07:23:59.776Z,5.68
2023-04-07T07:26:27.164Z,8.43
2023-04-07T07:28:54.464Z,10.43
2023-04-07T07:31:21.733Z,11.70
2023-04-07T07:33:49.934Z,9.32
2023-04-07T07:36:18.723Z,6.75
2023-04-07T07:38:46.420Z,8.05
2023-04-07T07:41:13.642Z,8.60
2023-04-07T07:43:41.069Z,5.50
2023-04-07T07:46:08.319Z,8.00
2023-04-07T07:48:35.553Z,5.95
2023-04-07T07:51:03.163Z,8.27
2023-04-07T07:53:39.656Z,6.18
2023-04-07T07:56:06.998Z,6.45
2023-04-07T07:58:34.197Z,7.85
2023-04-07T08:01:01.510Z,6.72
2023-04-07T08:03:29.484Z,7.72
2023-04-07T08:05:56.789Z,7.88
2023-04-07T08:08:24.002Z,7.35
2023-04-07T08:10:51.206Z,6.70
2023-04-07T08:13:18.566Z,6.32
2023-04-07T08:15:45.786Z,7.95
2023-04-07T08:18:13.054Z,8.82
2023-04-07T08:20:40.731Z,5.05
2023-04-07T08:23:08.118Z,5.60
2023-04-07T08:25:35.519Z,8.10
2023-04-07T08:28:02.737Z,6.28
2023-04-07T08:30:29.938Z,5.13
2023-04-07T08:32:57.395Z,4.53
2023-04-07T08:35:24.677Z,7.65
2023-04-07T08:37:51.876Z,7.28
2023-04-07T08:40:19.142Z,6.72
2023-04-07T08:42:48.393Z,5.80
2023-04-07T08:45:17.839Z,6.32
2023-04-07T08:47:47.950Z,5.85
2023-04-07T08:50:17.547Z,6.07
2023-04-07T08:53:07.446Z,6.07
2023-04-07T08:55:36.283Z,5.80
2023-04-07T08:58:04.237Z,7.35
2023-04-07T09:00:32.994Z,7.00
2023-04-07T09:03:01.300Z,5.72
2023-04-07T09:05:30.581Z,6.57
2023-04-07T09:07:57.770Z,5.40
2023-04-07T09:10:24.978Z,5.03
2023-04-07T09:12:52.249Z,5.05
2023-04-07T09:15:19.737Z,6.50
2023-04-07T09:17:47.235Z,5.82
2023-04-07T09:20:14.659Z,6.35
2023-04-07T09:22:45.615Z,3.38
2023-04-07T09:25:19.925Z,5.22
2023-04-07T09:28:01.713Z,6.47
2023-04-07T09:30:31.398Z,5.40
2023-04-07T09:32:59.794Z,5.53
2023-04-07T09:35:28.293Z,4.63
2023-04-07T09:38:10.107Z,5.50
2023-04-07T09:40:37.632Z,5.57
2023-04-07T09:43:06.350Z,4.22
2023-04-07T09:45:36.510Z,5.78
2023-04-07T09:48:08.759Z,4.85
2023-04-07T09:50:41.498Z,5.93
2023-04-07T09:53:08.856Z,5.28
2023-04-07T09:55:37.466Z,4.90
2023-04-07T09:58:06.360Z,4.00
2023-04-07T10:00:35.269Z,3.65
2023-04-07T10:03:04.076Z,4.97
2023-04-07T10:07:58.841Z,5.05
2023-04-07T10:10:27.123Z,3.25
2023-04-07T10:12:56.905Z,4.47
2023-04-07T10:15:24.412Z,4.00
2023-04-07T10:17:53.401Z,4.28
2023-04-07T10:20:21.840Z,5.40
2023-04-07T10:22:51.498Z,4.10
2023-04-07T10:25:21.294Z,5.07
2023-04-07T10:27:51.213Z,4.60
2023-04-07T10:30:26.258Z,4.15
2023-04-07T10:32:54.564Z,3.90
2023-04-07T10:35:22.793Z,3.63
2023-04-07T10:38:08.415Z,3.70
2023-04-07T10:40:37.301Z,4.53
2023-04-07T10:43:05.123Z,3.05
2023-04-07T10:45:52.319Z,3.35
2023-04-07T10:48:20.641Z,4.75
2023-04-07T10:51:10.604Z,3.38
2023-04-07T10:53:38.375Z,4.35
2023-04-07T10:56:06.025Z,5.50
2023-04-07T10:58:33.678Z,2.25
2023-04-07T11:01:01.095Z,4.97
2023-04-07T11:03:30.643Z,4.43
2023-04-07T11:06:12.316Z,4.18
2023-04-07T11:08:42.246Z,3.70
2023-04-07T11:11:11.544Z,5.40
2023-04-07T11:13:49.195Z,5.18
2023-04-07T11:16:18.551Z,5.82
2023-04-07T11:18:47.866Z,6.13
2023-04-07T11:21:19.568Z,5.53
2023-04-07T11:23:48.016Z,5.82
2023-04-07T11:26:16.430Z,4.15
2023-04-07T11:28:48.774Z,4.00
2023-04-07T11:31:24.489Z,5.85
2023-04-07T11:33:56.664Z,4.50
2023-04-07T11:36:39.422Z,5.13
2023-04-07T11:39:18.580Z,5.80
2023-04-07T11:41:47.620Z,4.65
2023-04-07T11:44:14.965Z,6.20
2023-04-07T11:46:59.444Z,5.97
2023-04-07T11:49:28.345Z,5.40
2023-04-07T11:54:47.859Z,5.15
2023-04-07T11:57:23.317Z,5.45
2023-04-07T11:59:50.822Z,5.60
2023-04-07T12:02:34.404Z,8.27
2023-04-07T12:05:01.874Z,6.85
2023-04-07T12:07:29.206Z,4.30
2023-04-07T12:09:57.440Z,5.63
2023-04-07T12:12:33.136Z,5.45
2023-04-07T12:15:00.509Z,6.05
2023-04-07T12:17:27.818Z,6.40
2023-04-07T12:19:55.188Z,5.85
2023-04-07T12:22:22.360Z,4.47
2023-04-07T12:24:49.537Z,4.95
2023-04-07T12:27:16.730Z,5.30
2023-04-07T12:29:43.990Z,5.78
2023-04-07T12:32:11.387Z,5.32
2023-04-07T12:34:39.388Z,5.20
2023-04-07T12:37:07.155Z,5.47
2023-04-07T12:39:34.575Z,5.60
2023-04-07T12:42:01.797Z,7.35
2023-04-07T12:44:29.069Z,7.53
2023-04-07T12:46:56.402Z,5.63
2023-04-07T12:49:23.595Z,6.68
2023-04-07T12:51:50.820Z,6.63
2023-04-07T12:54:18.408Z,5.00
2023-04-07T12:56:45.962Z,4.97
2023-04-07T12:59:13.908Z,6.80
2023-04-07T13:01:41.221Z,5.55
2023-04-07T13:04:09.380Z,6.45
2023-04-07T13:06:37.164Z,5.45
2023-04-07T13:09:04.397Z,7.60
2023-04-07T13:11:31.610Z,4.70
2023-04-07T13:14:01.129Z,3.72
2023-04-07T13:16:28.965Z,5.55
2023-04-07T13:18:56.197Z,6.10
2023-04-07T13:23:53.722Z,5.30
2023-04-07T13:26:21.030Z,5.95
2023-04-07T13:28:48.606Z,4.82
2023-04-07T13:31:16.197Z,4.85
2023-04-07T13:33:43.798Z,5.43
2023-04-07T13:36:11.066Z,7.57
2023-04-07T13:38:38.771Z,3.53
2023-04-07T13:41:06.578Z,4.45
2023-04-07T13:43:33.804Z,5.18
2023-04-07T13:46:01.061Z,4.57
2023-04-07T13:48:28.457Z,4.18
2023-04-07T13:50:55.935Z,4.75
2023-04-07T13:53:23.574Z,4.55
2023-04-07T13:55:50.815Z,4.07
2023-04-07T13:58:18.199Z,3.90
2023-04-07T14:00:45.405Z,4.05
2023-04-07T14:03:12.805Z,4.80
2023-04-07T14:05:40.262Z,4.63
2023-04-07T14:08:07.467Z,3.95
2023-04-07T14:10:36.158Z,4.80
2023-04-07T14:13:03.389Z,3.17
2023-04-07T14:15:30.595Z,3.05
2023-04-07T14:17:57.894Z,3.70
2023-04-07T14:20:27.189Z,5.00
2023-04-07T14:22:54.833Z,4.82
2023-04-07T14:25:22.316Z,3.92
2023-04-07T14:27:49.539Z,6.13
2023-04-07T14:30:16.780Z,5.03
2023-04-07T14:32:44.270Z,5.57
2023-04-07T14:35:11.541Z,5.38
2023-04-07T14:37:38.738Z,4.50
2023-04-07T14:40:07.356Z,5.70
2023-04-07T14:45:02.839Z,3.90
2023-04-07T14:47:30.141Z,4.25
2023-04-07T14:49:57.367Z,4.35
2023-04-07T14:52:24.647Z,4.38
2023-04-07T14:54:51.887Z,4.93
2023-04-07T14:57:19.614Z,5.15
2023-04-07T14:59:47.364Z,3.00
2023-04-07T15:02:14.673Z,3.25
2023-04-07T15:04:42.057Z,3.22
2023-04-07T15:07:10.365Z,2.83
2023-04-07T15:09:37.564Z,1.95
2023-04-07T15:12:05.209Z,3.42
2023-04-07T15:14:32.548Z,3.47
2023-04-07T15:16:59.778Z,2.67
2023-04-07T15:19:26.998Z,2.78
2023-04-07T15:21:54.198Z,5.53
2023-04-07T15:24:22.217Z,6.25
2023-04-07T15:26:49.807Z,15.45
2023-04-07T15:29:17.006Z,4.93
2023-04-07T15:31:44.296Z,3.95
2023-04-07T15:34:12.671Z,5.28
2023-04-07T15:36:40.293Z,5.78
2023-04-07T15:39:07.608Z,7.57
2023-04-07T15:41:34.980Z,1.63
2023-04-07T15:44:03.402Z,3.00
2023-04-07T15:46:33.603Z,2.75
2023-04-07T15:49:00.866Z,2.70
2023-04-07T15:51:29.400Z,2.83
2023-04-07T15:53:56.818Z,2.75
2023-04-07T15:56:24.746Z,3.35
2023-04-07T15:58:52.307Z,2.83
2023-04-07T16:01:19.820Z,2.05
2023-04-07T16:03:47.461Z,2.85
2023-04-07T16:06:15.039Z,3.35
2023-04-07T16:08:42.326Z,2.15
2023-04-07T16:11:09.530Z,2.38
2023-04-07T16:13:37.281Z,2.00
2023-04-07T16:16:04.745Z,1.40
2023-04-07T16:18:32.200Z,2.60
2023-04-07T16:20:59.391Z,3.40
2023-04-07T16:23:26.640Z,2.63
2023-04-07T16:25:53.822Z,1.95
2023-04-07T16:28:21.052Z,1.33
2023-04-07T16:30:48.302Z,2.33
2023-04-07T16:33:15.496Z,0.95
2023-04-07T16:35:42.836Z,1.33
2023-04-07T16:38:10.170Z,1.08
2023-04-07T16:40:37.363Z,1.27
2023-04-07T16:43:04.564Z,0.73
2023-04-07T16:45:31.781Z,1.42
2023-04-07T16:47:59.037Z,2.08
2023-04-07T16:50:26.295Z,3.40
2023-04-07T16:52:54.803Z,1.75
2023-04-07T16:55:22.126Z,1.15
2023-04-07T16:57:50.118Z,1.27
2023-04-07T17:00:17.400Z,1.17
2023-04-07T17:02:44.777Z,0.70
2023-04-07T17:05:12.138Z,1.92
2023-04-07T17:07:39.405Z,1.52
2023-04-07T17:10:07.157Z,4.85
2023-04-07T17:12:34.382Z,1.42
2023-04-07T17:15:01.585Z,1.77
2023-04-07T17:17:28.861Z,1.73
2023-04-07T17:19:57.557Z,1.55
2023-04-07T17:22:24.816Z,1.40
2023-04-07T17:24:52.400Z,1.70
2023-04-07T17:27:19.613Z,1.73
2023-04-07T17:29:46.811Z,1.88
2023-04-07T17:32:14.019Z,2.65
2023-04-07T17:34:41.526Z,1.65
2023-04-07T17:37:08.745Z,1.50
2023-04-07T17:39:36.106Z,2.63
2023-04-07T17:42:03.395Z,2.28
2023-04-07T17:44:31.024Z,2.22
2023-04-07T17:46:58.921Z,4.90
2023-04-07T17:49:26.596Z,0.95
2023-04-07T17:51:54.144Z,2.58
2023-04-07T17:54:21.457Z,2.28
2023-04-07T17:56:49.130Z,1.60
2023-04-07T17:59:16.322Z,1.48
2023-04-07T18:01:43.664Z,1.90
2023-04-07T18:04:10.989Z,4.00
2023-04-07T18:06:38.327Z,1.45
2023-04-07T18:09:05.585Z,2.80
2023-04-07T18:11:32.848Z,2.03
2023-04-07T18:14:00.516Z,2.30
2023-04-07T18:16:27.822Z,3.25
2023-04-07T18:18:55.272Z,5.95
2023-04-07T18:21:22.492Z,1.98
2023-04-07T18:23:49.906Z,2.80
2023-04-07T18:26:17.312Z,3.42
2023-04-07T18:28:44.580Z,2.38
2023-04-07T18:31:12.381Z,2.22
2023-04-07T18:33:39.760Z,2.13
2023-04-07T18:36:07.870Z,4.07
2023-04-07T18:38:36.054Z,2.35
2023-04-07T18:41:04.048Z,1.13
2023-04-07T18:43:31.620Z,1.27
2023-04-07T18:45:59.097Z,1.90
2023-04-07T18:48:26.554Z,6.07
2023-04-07T18:50:55.514Z,1.85
2023-04-07T18:53:24.688Z,2.20
2023-04-07T18:55:52.414Z,2.47
2023-04-07T18:58:20.093Z,1.92
2023-04-07T19:00:52.835Z,1.73
2023-04-07T19:03:21.673Z,2.40
2023-04-07T19:05:52.359Z,2.63
2023-04-07T19:08:20.024Z,3.55
2023-04-07T19:10:48.409Z,3.10
2023-04-07T19:13:18.273Z,1.85
2023-04-07T19:15:46.602Z,1.00
2023-04-07T19:18:14.357Z,2.20
2023-04-07T19:20:41.940Z,1.25
2023-04-07T19:23:09.713Z,1.73
2023-04-07T19:25:38.345Z,1.70
2023-04-07T19:28:05.937Z,1.85
2023-04-07T19:30:33.826Z,1.50
2023-04-07T19:33:01.886Z,3.10
2023-04-07T19:35:30.470Z,3.53
2023-04-07T19:37:57.694Z,3.33
2023-04-07T19:40:26.072Z,1.33
2023-04-07T19:42:55.471Z,3.40
2023-04-07T19:45:22.930Z,2.83
2023-04-07T19:47:50.279Z,3.08
2023-04-07T19:50:18.047Z,6.07
2023-04-07T19:52:45.819Z,2.05
2023-04-07T19:55:14.159Z,2.22
2023-04-07T19:57:41.520Z,4.20
2023-04-07T20:00:10.018Z,3.72
2023-04-07T20:02:49.408Z,2.85
2023-04-07T20:05:18.792Z,1.55
2023-04-07T20:07:47.040Z,1.65
2023-04-07T20:10:14.392Z,0.85
2023-04-07T20:12:48.160Z,1.90
2023-04-07T20:15:16.128Z,5.25
2023-04-07T20:17:45.681Z,4.13
2023-04-07T20:20:13.986Z,2.05
2023-04-07T20:22:41.587Z,2.15
2023-04-07T20:25:12.430Z,1.20
2023-04-07T20:27:39.860Z,0.80
2023-04-07T20:32:49.859Z,3.70
2023-04-07T20:35:17.628Z,2.13
2023-04-07T20:37:45.294Z,2.72
2023-04-07T20:40:13.625Z,4.20
2023-04-07T20:42:40.877Z,1.55
2023-04-07T20:45:08.510Z,2.95
2023-04-07T20:47:36.818Z,0.85
2023-04-07T20:50:04.515Z,3.08
2023-04-07T20:52:31.761Z,3.25
2023-04-07T20:54:59.093Z,1.30
2023-04-07T20:57:26.760Z,2.80
2023-04-07T20:59:54.467Z,3.13
2023-04-07T21:02:21.844Z,1.48
2023-04-07T21:04:49.659Z,4.35
2023-04-07T21:07:16.832Z,1.35
2023-04-07T21:09:44.100Z,2.97
2023-04-07T21:12:11.551Z,2.75
2023-04-07T21:14:38.805Z,2.30
2023-04-07T21:17:06.991Z,3.28
2023-04-07T21:19:34.217Z,2.22
2023-04-07T21:22:01.633Z,2.63
2023-04-07T21:24:29.691Z,2.25
2023-04-07T21:26:56.934Z,2.88
2023-04-07T21:29:24.310Z,3.53
2023-04-07T21:31:52.680Z,5.97
2023-04-07T21:34:19.944Z,3.15
2023-04-07T21:36:47.424Z,3.50
2023-04-07T21:39:17.946Z,3.08
2023-04-07T21:41:45.733Z,3.42
2023-04-07T21:44:13.219Z,2.25
2023-04-07T21:46:41.130Z,2.63
2023-04-07T21:49:08.603Z,2.95
2023-04-07T21:51:39.358Z,3.45
2023-04-07T21:54:07.134Z,4.05
2023-04-07T21:56:35.855Z,5.25
2023-04-07T21:59:04.248Z,3.15
2023-04-07T22:01:32.517Z,2.45
2023-04-07T22:03:59.995Z,5.45
2023-04-07T22:06:27.901Z,3.20
2023-04-07T22:09:01.940Z,2.08
2023-04-07T22:11:29.993Z,6.78
2023-04-07T22:13:57.868Z,2.45
2023-04-07T22:16:25.677Z,3.20
2023-04-07T22:18:52.914Z,2.65
2023-04-07T22:21:20.328Z,9.27
2023-04-07T22:23:47.564Z,2.50
2023-04-07T22:26:17.647Z,1.50
2023-04-07T22:28:44.943Z,3.78
2023-04-07T22:31:16.092Z,2.53
2023-04-07T22:33:43.984Z,4.75
2023-04-07T22:36:11.263Z,1.88
2023-04-07T22:38:38.468Z,3.60
2023-04-07T22:41:05.665Z,3.60
2023-04-07T22:43:32.968Z,3.28
2023-04-07T22:46:00.206Z,4.38
2023-04-07T22:48:28.111Z,3.33
2023-04-07T22:50:55.570Z,3.45
2023-04-07T22:53:22.837Z,4.75
2023-04-07T22:55:51.210Z,4.85
2023-04-07T22:58:19.248Z,4.63
2023-04-07T23:00:46.488Z,4.60
2023-04-07T23:03:14.915Z,6.30
2023-04-07T23:05:42.274Z,2.65
2023-04-07T23:08:09.483Z,8.45
2023-04-07T23:10:36.688Z,6.07
2023-04-07T23:13:03.894Z,4.47
2023-04-07T23:15:33.470Z,3.50
2023-04-07T23:18:00.765Z,3.28
2023-04-07T23:20:28.317Z,5.68
2023-04-07T23:22:55.585Z,4.55
2023-04-07T23:25:22.914Z,3.80
2023-04-07T23:27:50.161Z,3.60
2023-04-07T23:30:17.335Z,5.30
2023-04-07T23:32:44.662Z,2.63
2023-04-07T23:35:12.021Z,2.85
2023-04-07T23:37:39.343Z,2.30
2023-04-07T23:40:08.212Z,2.90
2023-04-07T23:42:35.460Z,3.25
2023-04-07T23:45:02.783Z,5.10
2023-04-07T23:47:30.069Z,2.55
2023-04-07T23:49:57.448Z,2.72
2023-04-07T23:52:24.660Z,5.97
2023-04-07T23:54:53.420Z,3.90
2023-04-07T23:57:20.632Z,1.98
2023-04-07T23:59:47.940Z,3.88
